sensor_id;sensor_type;location;lat;lon;timestamp;temperature;humidity
3086;DHT22;52812;48.960;9.108;2023-03-15T00:01:07;2.30;99.90
3086;DHT22;52812;48.960;9.108;2023-03-15T00:03:34;2.30;99.90
3086;DHT22;52812;48.960;9.108;2023-03-15T00:06:02;2.30;99.90
3086;DHT22;52812;48.960;9.108;2023-03-15T00:08:29;2.30;99.90
3086;DHT22;52812;48.960;9.108;2023-03-15T00:10:58;2.30;99.90
3086;DHT22;52812;48.960;9.108;2023-03-15T00:13:24;2.30;99.90
3086;DHT22;52812;48.960;9.108;2023-03-15T00:15:51;2.30;99.90
3086;DHT22;52812;48.960;9.108;2023-03-15T00:18:19;2.30;99.90
3086;DHT22;52812;48.960;9.108;2023-03-15T00:20:45;2.40;99.90
3086;DHT22;52812;48.960;9.108;2023-03-15T00:23:11;2.30;99.90
3086;DHT22;52812;48.960;9.108;2023-03-15T00:25:37;2.30;99.90
3086;DHT22;52812;48.960;9.108;2023-03-15T00:28:03;2.30;99.90
3086;DHT22;52812;48.960;9.108;2023-03-15T00:30:29;2.30;99.90
3086;DHT22;52812;48.960;9.108;2023-03-15T00:32:55;2.30;99.90
3086;DHT22;52812;48.960;9.108;2023-03-15T00:35:20;2.20;99.90
3086;DHT22;52812;48.960;9.108;2023-03-15T00:37:46;2.20;99.90
3086;DHT22;52812;48.960;9.108;2023-03-15T00:40:12;2.20;99.90
3086;DHT22;52812;48.960;9.108;2023-03-15T00:42:38;2.20;99.90
3086;DHT22;52812;48.960;9.108;2023-03-15T00:45:05;2.20;99.90
3086;DHT22;52812;48.960;9.108;2023-03-15T00:47:31;2.20;99.90
3086;DHT22;52812;48.960;9.108;2023-03-15T00:49:56;2.10;99.90
3086;DHT22;52812;48.960;9.108;2023-03-15T00:52:22;2.10;99.90
3086;DHT22;52812;48.960;9.108;2023-03-15T00:54:52;2.00;99.90
3086;DHT22;52812;48.960;9.108;2023-03-15T00:57:18;1.90;99.90
3086;DHT22;52812;48.960;9.108;2023-03-15T00:59:43;1.80;99.90
3086;DHT22;52812;48.960;9.108;2023-03-15T01:02:09;1.80;99.90
3086;DHT22;52812;48.960;9.108;2023-03-15T01:04:35;1.80;99.90
3086;DHT22;52812;48.960;9.108;2023-03-15T01:07:01;1.70;99.90
3086;DHT22;52812;48.960;9.108;2023-03-15T01:09:27;1.70;99.90
3086;DHT22;52812;48.960;9.108;2023-03-15T01:11:52;1.70;99.90
3086;DHT22;52812;48.960;9.108;2023-03-15T01:14:18;1.70;99.90
3086;DHT22;52812;48.960;9.108;2023-03-15T01:16:44;1.60;99.90
3086;DHT22;52812;48.960;9.108;2023-03-15T01:19:11;1.60;99.90
3086;DHT22;52812;48.960;9.108;2023-03-15T01:21:37;1.50;99.90
3086;DHT22;52812;48.960;9.108;2023-03-15T01:24:03;1.50;99.90
3086;DHT22;52812;48.960;9.108;2023-03-15T01:26:29;1.50;99.90
3086;DHT22;52812;48.960;9.108;2023-03-15T01:28:54;1.40;99.90
3086;DHT22;52812;48.960;9.108;2023-03-15T01:31:28;1.40;99.90
3086;DHT22;52812;48.960;9.108;2023-03-15T01:33:55;1.30;99.90
3086;DHT22;52812;48.960;9.108;2023-03-15T01:36:21;1.30;99.90
3086;DHT22;52812;48.960;9.108;2023-03-15T01:38:47;1.20;99.90
3086;DHT22;52812;48.960;9.108;2023-03-15T01:41:14;1.20;99.90
3086;DHT22;52812;48.960;9.108;2023-03-15T01:43:41;1.20;99.90
3086;DHT22;52812;48.960;9.108;2023-03-15T01:46:23;1.10;99.90
3086;DHT22;52812;48.960;9.108;2023-03-15T01:54:14;1.10;99.90
3086;DHT22;52812;48.960;9.108;2023-03-15T01:59:34;1.10;99.90
3086;DHT22;52812;48.960;9.108;2023-03-15T02:02:01;1.20;99.90
3086;DHT22;52812;48.960;9.108;2023-03-15T02:04:33;1.10;99.90
3086;DHT22;52812;48.960;9.108;2023-03-15T02:07:01;1.10;99.90
3086;DHT22;52812;48.960;9.108;2023-03-15T02:09:53;1.20;99.90
3086;DHT22;52812;48.960;9.108;2023-03-15T02:12:21;1.10;99.90
3086;DHT22;52812;48.960;9.108;2023-03-15T02:14:49;1.10;99.90
3086;DHT22;52812;48.960;9.108;2023-03-15T02:17:17;1.10;99.90
3086;DHT22;52812;48.960;9.108;2023-03-15T02:22:45;1.00;99.90
3086;DHT22;52812;48.960;9.108;2023-03-15T02:28:06;1.00;99.90
3086;DHT22;52812;48.960;9.108;2023-03-15T02:30:33;1.10;99.90
3086;DHT22;52812;48.960;9.108;2023-03-15T02:33:00;1.10;99.90
3086;DHT22;52812;48.960;9.108;2023-03-15T02:35:29;1.00;99.90
3086;DHT22;52812;48.960;9.108;2023-03-15T02:37:56;1.00;99.90
3086;DHT22;52812;48.960;9.108;2023-03-15T02:40:25;1.00;99.90
3086;DHT22;52812;48.960;9.108;2023-03-15T02:42:56;1.00;99.90
3086;DHT22;52812;48.960;9.108;2023-03-15T02:45:24;1.00;99.90
3086;DHT22;52812;48.960;9.108;2023-03-15T02:47:51;1.00;99.90
3086;DHT22;52812;48.960;9.108;2023-03-15T02:50:17;0.90;99.90
3086;DHT22;52812;48.960;9.108;2023-03-15T02:52:42;0.90;99.90
3086;DHT22;52812;48.960;9.108;2023-03-15T02:55:08;0.90;99.90
3086;DHT22;52812;48.960;9.108;2023-03-15T02:57:34;0.90;99.90
3086;DHT22;52812;48.960;9.108;2023-03-15T02:59:59;0.90;99.90
3086;DHT22;52812;48.960;9.108;2023-03-15T03:02:31;0.80;99.90
3086;DHT22;52812;48.960;9.108;2023-03-15T03:04:57;0.90;99.90
3086;DHT22;52812;48.960;9.108;2023-03-15T03:07:22;1.00;99.90
3086;DHT22;52812;48.960;9.108;2023-03-15T03:09:48;1.00;99.90
3086;DHT22;52812;48.960;9.108;2023-03-15T03:12:13;1.00;99.90
3086;DHT22;52812;48.960;9.108;2023-03-15T03:14:39;0.90;99.90
3086;DHT22;52812;48.960;9.108;2023-03-15T03:17:07;0.90;99.90
3086;DHT22;52812;48.960;9.108;2023-03-15T03:19:33;0.80;99.90
3086;DHT22;52812;48.960;9.108;2023-03-15T03:21:58;0.80;99.90
3086;DHT22;52812;48.960;9.108;2023-03-15T03:24:24;0.80;99.90
3086;DHT22;52812;48.960;9.108;2023-03-15T03:26:50;0.70;99.90
3086;DHT22;52812;48.960;9.108;2023-03-15T03:29:16;0.60;99.90
3086;DHT22;52812;48.960;9.108;2023-03-15T03:31:42;0.60;99.90
3086;DHT22;52812;48.960;9.108;2023-03-15T03:34:08;0.60;99.90
3086;DHT22;52812;48.960;9.108;2023-03-15T03:36:35;0.60;99.90
3086;DHT22;52812;48.960;9.108;2023-03-15T03:39:00;0.50;99.90
3086;DHT22;52812;48.960;9.108;2023-03-15T03:41:26;0.50;99.90
3086;DHT22;52812;48.960;9.108;2023-03-15T03:43:52;0.60;99.90
3086;DHT22;52812;48.960;9.108;2023-03-15T03:46:18;0.60;99.90
3086;DHT22;52812;48.960;9.108;2023-03-15T03:48:43;0.60;99.90
3086;DHT22;52812;48.960;9.108;2023-03-15T03:51:09;0.60;99.90
3086;DHT22;52812;48.960;9.108;2023-03-15T03:53:35;0.50;99.90
3086;DHT22;52812;48.960;9.108;2023-03-15T03:56:04;0.40;99.90
3086;DHT22;52812;48.960;9.108;2023-03-15T03:58:29;0.40;99.90
3086;DHT22;52812;48.960;9.108;2023-03-15T04:00:55;0.30;99.90
3086;DHT22;52812;48.960;9.108;2023-03-15T04:03:20;0.30;99.90
3086;DHT22;52812;48.960;9.108;2023-03-15T04:05:56;0.30;99.90
3086;DHT22;52812;48.960;9.108;2023-03-15T04:08:23;0.20;99.90
3086;DHT22;52812;48.960;9.108;2023-03-15T04:10:53;0.20;99.90
3086;DHT22;52812;48.960;9.108;2023-03-15T04:13:20;0.20;99.90
3086;DHT22;52812;48.960;9.108;2023-03-15T04:15:46;0.10;99.90
3086;DHT22;52812;48.960;9.108;2023-03-15T04:18:12;0.00;99.90
3086;DHT22;52812;48.960;9.108;2023-03-15T04:20:37;0.00;99.90
3086;DHT22;52812;48.960;9.108;2023-03-15T04:23:03;0.00;99.90
3086;DHT22;52812;48.960;9.108;2023-03-15T04:25:31;0.00;99.90
3086;DHT22;52812;48.960;9.108;2023-03-15T04:27:57;0.00;99.90
3086;DHT22;52812;48.960;9.108;2023-03-15T04:30:27;0.00;99.90
3086;DHT22;52812;48.960;9.108;2023-03-15T04:32:54;-0.10;99.90
3086;DHT22;52812;48.960;9.108;2023-03-15T04:35:33;-0.10;99.90
3086;DHT22;52812;48.960;9.108;2023-03-15T04:37:59;-0.10;99.90
3086;DHT22;52812;48.960;9.108;2023-03-15T04:40:25;-0.10;99.90
3086;DHT22;52812;48.960;9.108;2023-03-15T04:42:52;-0.20;99.90
3086;DHT22;52812;48.960;9.108;2023-03-15T04:45:22;-0.20;99.90
3086;DHT22;52812;48.960;9.108;2023-03-15T04:47:49;-0.30;99.90
3086;DHT22;52812;48.960;9.108;2023-03-15T04:50:15;-0.30;99.90
3086;DHT22;52812;48.960;9.108;2023-03-15T04:52:40;-0.30;99.90
3086;DHT22;52812;48.960;9.108;2023-03-15T04:55:06;-0.30;99.90
3086;DHT22;52812;48.960;9.108;2023-03-15T04:57:32;-0.40;99.90
3086;DHT22;52812;48.960;9.108;2023-03-15T04:59:57;-0.40;99.90
3086;DHT22;52812;48.960;9.108;2023-03-15T05:02:23;-0.40;99.90
3086;DHT22;52812;48.960;9.108;2023-03-15T05:04:48;-0.40;99.90
3086;DHT22;52812;48.960;9.108;2023-03-15T05:07:14;-0.50;99.90
3086;DHT22;52812;48.960;9.108;2023-03-15T05:09:40;-0.50;99.90
3086;DHT22;52812;48.960;9.108;2023-03-15T05:12:06;-0.50;99.90
3086;DHT22;52812;48.960;9.108;2023-03-15T05:14:32;-0.60;99.90
3086;DHT22;52812;48.960;9.108;2023-03-15T05:16:58;-0.60;99.90
3086;DHT22;52812;48.960;9.108;2023-03-15T05:19:27;-0.60;99.90
3086;DHT22;52812;48.960;9.108;2023-03-15T05:21:53;-0.70;99.90
3086;DHT22;52812;48.960;9.108;2023-03-15T05:24:21;-0.70;99.90
3086;DHT22;52812;48.960;9.108;2023-03-15T05:26:47;-0.80;99.90
3086;DHT22;52812;48.960;9.108;2023-03-15T05:29:13;-0.80;99.90
3086;DHT22;52812;48.960;9.108;2023-03-15T05:31:38;-0.80;99.90
3086;DHT22;52812;48.960;9.108;2023-03-15T05:34:05;-0.80;99.90
3086;DHT22;52812;48.960;9.108;2023-03-15T05:36:31;-0.80;99.90
3086;DHT22;52812;48.960;9.108;2023-03-15T05:38:57;-0.80;99.90
3086;DHT22;52812;48.960;9.108;2023-03-15T05:41:23;-0.80;99.90
3086;DHT22;52812;48.960;9.108;2023-03-15T05:43:49;-0.80;99.90
3086;DHT22;52812;48.960;9.108;2023-03-15T05:46:15;-0.80;99.90
3086;DHT22;52812;48.960;9.108;2023-03-15T05:48:41;-0.70;99.90
3086;DHT22;52812;48.960;9.108;2023-03-15T05:51:06;-0.70;99.90
3086;DHT22;52812;48.960;9.108;2023-03-15T05:53:32;-0.60;99.90
3086;DHT22;52812;48.960;9.108;2023-03-15T05:55:58;-0.60;99.90
3086;DHT22;52812;48.960;9.108;2023-03-15T05:58:23;-0.60;99.90
3086;DHT22;52812;48.960;9.108;2023-03-15T06:00:49;-0.60;99.90
3086;DHT22;52812;48.960;9.108;2023-03-15T06:03:15;-0.50;99.90
3086;DHT22;52812;48.960;9.108;2023-03-15T06:05:41;-0.50;99.90
3086;DHT22;52812;48.960;9.108;2023-03-15T06:08:06;-0.50;99.90
3086;DHT22;52812;48.960;9.108;2023-03-15T06:10:32;-0.40;99.90
3086;DHT22;52812;48.960;9.108;2023-03-15T06:12:58;-0.30;99.90
3086;DHT22;52812;48.960;9.108;2023-03-15T06:15:24;-0.20;99.90
3086;DHT22;52812;48.960;9.108;2023-03-15T06:17:49;-0.10;99.90
3086;DHT22;52812;48.960;9.108;2023-03-15T06:20:15;0.10;99.90
3086;DHT22;52812;48.960;9.108;2023-03-15T06:22:41;0.10;99.90
3086;DHT22;52812;48.960;9.108;2023-03-15T06:25:07;0.20;99.90
3086;DHT22;52812;48.960;9.108;2023-03-15T06:27:33;0.30;99.90
3086;DHT22;52812;48.960;9.108;2023-03-15T06:29:58;0.40;99.90
3086;DHT22;52812;48.960;9.108;2023-03-15T06:32:24;0.40;99.90
3086;DHT22;52812;48.960;9.108;2023-03-15T06:34:49;0.60;99.90
3086;DHT22;52812;48.960;9.108;2023-03-15T06:37:15;0.80;99.90
3086;DHT22;52812;48.960;9.108;2023-03-15T06:39:41;1.00;99.90
3086;DHT22;52812;48.960;9.108;2023-03-15T06:42:07;1.20;99.90
3086;DHT22;52812;48.960;9.108;2023-03-15T06:44:33;1.40;99.90
3086;DHT22;52812;48.960;9.108;2023-03-15T06:46:59;1.60;99.90
3086;DHT22;52812;48.960;9.108;2023-03-15T06:49:25;2.00;99.90
3086;DHT22;52812;48.960;9.108;2023-03-15T06:51:50;2.30;99.90
3086;DHT22;52812;48.960;9.108;2023-03-15T06:54:16;2.70;99.90
3086;DHT22;52812;48.960;9.108;2023-03-15T06:56:42;3.00;99.90
3086;DHT22;52812;48.960;9.108;2023-03-15T06:59:07;3.50;99.90
3086;DHT22;52812;48.960;9.108;2023-03-15T07:01:33;3.80;99.90
3086;DHT22;52812;48.960;9.108;2023-03-15T07:04:00;4.00;99.90
3086;DHT22;52812;48.960;9.108;2023-03-15T07:06:25;4.40;99.90
3086;DHT22;52812;48.960;9.108;2023-03-15T07:08:52;4.70;99.90
3086;DHT22;52812;48.960;9.108;2023-03-15T07:11:18;4.90;99.90
3086;DHT22;52812;48.960;9.108;2023-03-15T07:13:44;5.00;99.90
3086;DHT22;52812;48.960;9.108;2023-03-15T07:16:10;5.20;99.90
3086;DHT22;52812;48.960;9.108;2023-03-15T07:18:35;5.30;99.90
3086;DHT22;52812;48.960;9.108;2023-03-15T07:21:02;5.40;99.90
3086;DHT22;52812;48.960;9.108;2023-03-15T07:23:29;5.50;99.90
3086;DHT22;52812;48.960;9.108;2023-03-15T07:25:55;5.60;99.90
3086;DHT22;52812;48.960;9.108;2023-03-15T07:28:22;5.80;99.90
3086;DHT22;52812;48.960;9.108;2023-03-15T07:33:18;5.90;99.90
3086;DHT22;52812;48.960;9.108;2023-03-15T07:35:47;6.10;99.90
3086;DHT22;52812;48.960;9.108;2023-03-15T07:38:12;6.00;99.90
3086;DHT22;52812;48.960;9.108;2023-03-15T07:40:38;6.10;99.90
3086;DHT22;52812;48.960;9.108;2023-03-15T07:43:03;6.30;99.90
3086;DHT22;52812;48.960;9.108;2023-03-15T07:45:30;6.30;99.90
3086;DHT22;52812;48.960;9.108;2023-03-15T07:47:56;6.40;99.90
3086;DHT22;52812;48.960;9.108;2023-03-15T07:50:21;6.30;99.90
3086;DHT22;52812;48.960;9.108;2023-03-15T07:52:48;6.00;99.90
3086;DHT22;52812;48.960;9.108;2023-03-15T07:55:13;5.90;99.90
3086;DHT22;52812;48.960;9.108;2023-03-15T07:57:40;5.90;99.90
3086;DHT22;52812;48.960;9.108;2023-03-15T08:00:06;6.00;99.90
3086;DHT22;52812;48.960;9.108;2023-03-15T08:02:32;5.80;99.90
3086;DHT22;52812;48.960;9.108;2023-03-15T08:04:57;5.80;99.90
3086;DHT22;52812;48.960;9.108;2023-03-15T08:07:23;5.80;99.90
3086;DHT22;52812;48.960;9.108;2023-03-15T08:09:48;5.80;99.90
3086;DHT22;52812;48.960;9.108;2023-03-15T08:12:14;5.70;99.90
3086;DHT22;52812;48.960;9.108;2023-03-15T08:14:39;5.70;99.90
3086;DHT22;52812;48.960;9.108;2023-03-15T08:17:05;5.60;99.90
3086;DHT22;52812;48.960;9.108;2023-03-15T08:19:31;5.40;99.90
3086;DHT22;52812;48.960;9.108;2023-03-15T08:21:56;5.30;99.90
3086;DHT22;52812;48.960;9.108;2023-03-15T08:24:22;5.40;99.90
3086;DHT22;52812;48.960;9.108;2023-03-15T08:26:47;5.40;99.90
3086;DHT22;52812;48.960;9.108;2023-03-15T08:29:13;5.60;99.90
3086;DHT22;52812;48.960;9.108;2023-03-15T08:31:39;5.70;99.90
3086;DHT22;52812;48.960;9.108;2023-03-15T08:34:06;5.80;99.90
3086;DHT22;52812;48.960;9.108;2023-03-15T08:36:31;6.00;99.90
3086;DHT22;52812;48.960;9.108;2023-03-15T08:38:57;6.00;99.90
3086;DHT22;52812;48.960;9.108;2023-03-15T08:41:22;6.00;99.90
3086;DHT22;52812;48.960;9.108;2023-03-15T08:43:48;5.80;99.90
3086;DHT22;52812;48.960;9.108;2023-03-15T08:46:14;5.70;99.90
3086;DHT22;52812;48.960;9.108;2023-03-15T08:48:39;5.60;99.90
3086;DHT22;52812;48.960;9.108;2023-03-15T08:51:06;5.60;99.90
3086;DHT22;52812;48.960;9.108;2023-03-15T08:53:33;5.60;99.90
3086;DHT22;52812;48.960;9.108;2023-03-15T08:55:59;5.70;99.90
3086;DHT22;52812;48.960;9.108;2023-03-15T08:58:24;5.80;99.90
3086;DHT22;52812;48.960;9.108;2023-03-15T09:00:50;5.90;99.90
3086;DHT22;52812;48.960;9.108;2023-03-15T09:03:17;5.90;99.90
3086;DHT22;52812;48.960;9.108;2023-03-15T09:05:43;6.00;99.90
3086;DHT22;52812;48.960;9.108;2023-03-15T09:08:09;5.90;99.90
3086;DHT22;52812;48.960;9.108;2023-03-15T09:10:35;5.90;99.90
3086;DHT22;52812;48.960;9.108;2023-03-15T09:13:00;6.00;99.90
3086;DHT22;52812;48.960;9.108;2023-03-15T09:15:26;6.00;99.90
3086;DHT22;52812;48.960;9.108;2023-03-15T09:17:53;6.00;99.90
3086;DHT22;52812;48.960;9.108;2023-03-15T09:20:19;6.00;99.90
3086;DHT22;52812;48.960;9.108;2023-03-15T09:22:52;5.90;99.90
3086;DHT22;52812;48.960;9.108;2023-03-15T09:25:19;6.00;99.90
3086;DHT22;52812;48.960;9.108;2023-03-15T09:27:45;6.30;99.90
3086;DHT22;52812;48.960;9.108;2023-03-15T09:30:11;6.60;99.90
3086;DHT22;52812;48.960;9.108;2023-03-15T09:32:37;6.90;99.90
3086;DHT22;52812;48.960;9.108;2023-03-15T09:35:05;7.30;99.90
3086;DHT22;52812;48.960;9.108;2023-03-15T09:37:31;7.30;99.90
3086;DHT22;52812;48.960;9.108;2023-03-15T09:39:57;7.10;99.90
3086;DHT22;52812;48.960;9.108;2023-03-15T09:42:49;7.20;99.90
3086;DHT22;52812;48.960;9.108;2023-03-15T09:50:49;7.30;99.90
3086;DHT22;52812;48.960;9.108;2023-03-15T09:53:27;7.70;99.90
3086;DHT22;52812;48.960;9.108;2023-03-15T09:55:53;7.50;99.90
3086;DHT22;52812;48.960;9.108;2023-03-15T09:58:25;7.50;99.90
3086;DHT22;52812;48.960;9.108;2023-03-15T10:00:59;7.80;99.90
3086;DHT22;52812;48.960;9.108;2023-03-15T10:06:12;8.30;99.90
3086;DHT22;52812;48.960;9.108;2023-03-15T10:08:40;8.40;99.90
3086;DHT22;52812;48.960;9.108;2023-03-15T10:11:33;8.50;99.90
3086;DHT22;52812;48.960;9.108;2023-03-15T10:16:42;8.40;99.90
3086;DHT22;52812;48.960;9.108;2023-03-15T10:19:24;8.10;99.90
3086;DHT22;52812;48.960;9.108;2023-03-15T10:24:48;7.40;99.90
3086;DHT22;52812;48.960;9.108;2023-03-15T10:29:47;7.80;99.90
3086;DHT22;52812;48.960;9.108;2023-03-15T10:32:18;8.20;99.90
3086;DHT22;52812;48.960;9.108;2023-03-15T10:34:51;8.40;99.90
3086;DHT22;52812;48.960;9.108;2023-03-15T10:37:18;8.50;99.90
3086;DHT22;52812;48.960;9.108;2023-03-15T10:39:50;8.40;99.90
3086;DHT22;52812;48.960;9.108;2023-03-15T10:42:25;8.30;99.90
3086;DHT22;52812;48.960;9.108;2023-03-15T10:44:51;8.30;99.90
3086;DHT22;52812;48.960;9.108;2023-03-15T10:47:19;8.30;99.90
3086;DHT22;52812;48.960;9.108;2023-03-15T10:49:45;7.90;99.90
3086;DHT22;52812;48.960;9.108;2023-03-15T10:52:34;7.80;99.90
3086;DHT22;52812;48.960;9.108;2023-03-15T10:55:04;7.40;99.90
3086;DHT22;52812;48.960;9.108;2023-03-15T10:57:38;7.40;99.90
3086;DHT22;52812;48.960;9.108;2023-03-15T11:02:51;6.90;99.90
3086;DHT22;52812;48.960;9.108;2023-03-15T11:05:18;7.00;99.90
3086;DHT22;52812;48.960;9.108;2023-03-15T11:07:55;6.80;99.90
3086;DHT22;52812;48.960;9.108;2023-03-15T11:10:24;6.80;99.90
3086;DHT22;52812;48.960;9.108;2023-03-15T11:13:18;6.70;99.90
3086;DHT22;52812;48.960;9.108;2023-03-15T11:15:54;6.70;99.90
3086;DHT22;52812;48.960;9.108;2023-03-15T11:18:30;6.50;99.90
3086;DHT22;52812;48.960;9.108;2023-03-15T11:20:57;6.50;99.90
3086;DHT22;52812;48.960;9.108;2023-03-15T11:23:28;6.50;99.90
3086;DHT22;52812;48.960;9.108;2023-03-15T11:25:56;6.40;99.90
3086;DHT22;52812;48.960;9.108;2023-03-15T11:28:26;6.40;99.90
3086;DHT22;52812;48.960;9.108;2023-03-15T11:30:54;6.40;99.90
3086;DHT22;52812;48.960;9.108;2023-03-15T11:36:17;6.40;99.90
3086;DHT22;52812;48.960;9.108;2023-03-15T11:38:44;6.40;99.90
3086;DHT22;52812;48.960;9.108;2023-03-15T11:43:58;6.20;99.90
3086;DHT22;52812;48.960;9.108;2023-03-15T11:46:42;6.30;99.90
3086;DHT22;52812;48.960;9.108;2023-03-15T11:49:27;6.30;99.90
3086;DHT22;52812;48.960;9.108;2023-03-15T11:51:54;6.30;99.90
3086;DHT22;52812;48.960;9.108;2023-03-15T11:54:21;6.30;99.90
3086;DHT22;52812;48.960;9.108;2023-03-15T11:56:54;6.10;99.90
3086;DHT22;52812;48.960;9.108;2023-03-15T11:59:31;5.70;99.90
3086;DHT22;52812;48.960;9.108;2023-03-15T12:02:00;5.50;99.90
3086;DHT22;52812;48.960;9.108;2023-03-15T12:07:04;5.10;99.90
3086;DHT22;52812;48.960;9.108;2023-03-15T12:12:03;5.00;99.90
3086;DHT22;52812;48.960;9.108;2023-03-15T12:14:34;4.90;99.90
3086;DHT22;52812;48.960;9.108;2023-03-15T12:19:59;4.60;99.90
3086;DHT22;52812;48.960;9.108;2023-03-15T12:22:30;4.40;99.90
3086;DHT22;52812;48.960;9.108;2023-03-15T12:25:02;4.00;99.90
3086;DHT22;52812;48.960;9.108;2023-03-15T12:27:29;3.90;99.90
3086;DHT22;52812;48.960;9.108;2023-03-15T12:30:00;3.80;99.90
3086;DHT22;52812;48.960;9.108;2023-03-15T12:32:28;3.70;99.90
3086;DHT22;52812;48.960;9.108;2023-03-15T12:34:56;3.60;99.90
3086;DHT22;52812;48.960;9.108;2023-03-15T12:40:33;3.70;99.90
3086;DHT22;52812;48.960;9.108;2023-03-15T12:58:51;4.60;99.90
3086;DHT22;52812;48.960;9.108;2023-03-15T13:01:18;4.60;99.90
3086;DHT22;52812;48.960;9.108;2023-03-15T13:03:44;4.80;99.90
3086;DHT22;52812;48.960;9.108;2023-03-15T13:11:39;5.10;99.90
3086;DHT22;52812;48.960;9.108;2023-03-15T13:14:41;5.30;99.90
3086;DHT22;52812;48.960;9.108;2023-03-15T13:19:44;5.30;99.90
3086;DHT22;52812;48.960;9.108;2023-03-15T13:24:56;5.30;99.90
3086;DHT22;52812;48.960;9.108;2023-03-15T13:30:36;5.60;99.90
3086;DHT22;52812;48.960;9.108;2023-03-15T13:35:46;5.60;99.90
3086;DHT22;52812;48.960;9.108;2023-03-15T13:38:34;5.70;99.90
3086;DHT22;52812;48.960;9.108;2023-03-15T13:41:13;5.90;99.90
3086;DHT22;52812;48.960;9.108;2023-03-15T13:43:39;5.90;99.90
3086;DHT22;52812;48.960;9.108;2023-03-15T13:46:07;6.00;99.90
3086;DHT22;52812;48.960;9.108;2023-03-15T13:48:35;5.80;99.90
3086;DHT22;52812;48.960;9.108;2023-03-15T13:51:17;5.70;99.90
3086;DHT22;52812;48.960;9.108;2023-03-15T13:53:46;5.80;99.90
3086;DHT22;52812;48.960;9.108;2023-03-15T13:57:01;5.80;99.90
3086;DHT22;52812;48.960;9.108;2023-03-15T13:59:31;5.70;99.90
3086;DHT22;52812;48.960;9.108;2023-03-15T14:01:59;5.80;99.90
3086;DHT22;52812;48.960;9.108;2023-03-15T14:04:26;5.60;99.90
3086;DHT22;52812;48.960;9.108;2023-03-15T14:07:26;5.50;99.90
3086;DHT22;52812;48.960;9.108;2023-03-15T14:10:20;5.30;99.90
3086;DHT22;52812;48.960;9.108;2023-03-15T14:12:46;5.10;99.90
3086;DHT22;52812;48.960;9.108;2023-03-15T14:15:17;4.90;99.90
3086;DHT22;52812;48.960;9.108;2023-03-15T14:17:59;4.80;99.90
3086;DHT22;52812;48.960;9.108;2023-03-15T14:20:28;4.80;99.90
3086;DHT22;52812;48.960;9.108;2023-03-15T14:23:02;4.90;99.90
3086;DHT22;52812;48.960;9.108;2023-03-15T14:25:30;5.00;99.90
3086;DHT22;52812;48.960;9.108;2023-03-15T14:27:59;5.10;99.90
3086;DHT22;52812;48.960;9.108;2023-03-15T14:30:26;5.00;99.90
3086;DHT22;52812;48.960;9.108;2023-03-15T14:33:02;4.90;99.90
3086;DHT22;52812;48.960;9.108;2023-03-15T14:40:32;4.70;99.90
3086;DHT22;52812;48.960;9.108;2023-03-15T14:43:00;4.70;99.90
3086;DHT22;52812;48.960;9.108;2023-03-15T14:45:26;4.70;99.90
3086;DHT22;52812;48.960;9.108;2023-03-15T14:47:56;4.70;99.90
3086;DHT22;52812;48.960;9.108;2023-03-15T14:50:24;4.70;99.90
3086;DHT22;52812;48.960;9.108;2023-03-15T14:52:51;4.70;99.90
3086;DHT22;52812;48.960;9.108;2023-03-15T14:55:21;4.80;99.90
3086;DHT22;52812;48.960;9.108;2023-03-15T14:57:47;5.00;99.90
3086;DHT22;52812;48.960;9.108;2023-03-15T15:00:15;5.10;99.90
3086;DHT22;52812;48.960;9.108;2023-03-15T15:02:46;5.20;99.90
3086;DHT22;52812;48.960;9.108;2023-03-15T15:05:32;5.30;99.90
3086;DHT22;52812;48.960;9.108;2023-03-15T15:08:10;5.40;99.90
3086;DHT22;52812;48.960;9.108;2023-03-15T15:10:40;5.40;99.90
3086;DHT22;52812;48.960;9.108;2023-03-15T15:13:11;5.40;99.90
3086;DHT22;52812;48.960;9.108;2023-03-15T15:15:39;5.30;99.90
3086;DHT22;52812;48.960;9.108;2023-03-15T15:18:04;5.30;99.90
3086;DHT22;52812;48.960;9.108;2023-03-15T15:20:30;5.30;99.90
3086;DHT22;52812;48.960;9.108;2023-03-15T15:22:55;5.30;99.90
3086;DHT22;52812;48.960;9.108;2023-03-15T15:25:22;5.20;99.90
3086;DHT22;52812;48.960;9.108;2023-03-15T15:27:48;5.10;99.90
3086;DHT22;52812;48.960;9.108;2023-03-15T15:30:17;5.00;99.90
3086;DHT22;52812;48.960;9.108;2023-03-15T15:32:43;4.90;99.90
3086;DHT22;52812;48.960;9.108;2023-03-15T15:35:13;5.00;99.90
3086;DHT22;52812;48.960;9.108;2023-03-15T15:37:40;5.10;99.90
3086;DHT22;52812;48.960;9.108;2023-03-15T15:40:14;5.10;99.90
3086;DHT22;52812;48.960;9.108;2023-03-15T15:42:40;5.10;99.90
3086;DHT22;52812;48.960;9.108;2023-03-15T15:45:16;5.10;99.90
3086;DHT22;52812;48.960;9.108;2023-03-15T15:47:42;5.10;99.90
3086;DHT22;52812;48.960;9.108;2023-03-15T15:50:13;5.00;99.90
3086;DHT22;52812;48.960;9.108;2023-03-15T15:52:41;4.90;99.90
3086;DHT22;52812;48.960;9.108;2023-03-15T15:55:11;4.90;99.90
3086;DHT22;52812;48.960;9.108;2023-03-15T15:57:37;4.80;99.90
3086;DHT22;52812;48.960;9.108;2023-03-15T16:00:07;4.80;99.90
3086;DHT22;52812;48.960;9.108;2023-03-15T16:02:36;4.80;99.90
3086;DHT22;52812;48.960;9.108;2023-03-15T16:05:02;4.70;99.90
3086;DHT22;52812;48.960;9.108;2023-03-15T16:07:28;4.80;99.90
3086;DHT22;52812;48.960;9.108;2023-03-15T16:09:55;4.70;99.90
3086;DHT22;52812;48.960;9.108;2023-03-15T16:12:21;4.70;99.90
3086;DHT22;52812;48.960;9.108;2023-03-15T16:14:48;4.70;99.90
3086;DHT22;52812;48.960;9.108;2023-03-15T16:17:20;4.70;99.90
3086;DHT22;52812;48.960;9.108;2023-03-15T16:19:47;4.80;99.90
3086;DHT22;52812;48.960;9.108;2023-03-15T16:22:13;4.80;99.90
3086;DHT22;52812;48.960;9.108;2023-03-15T16:24:39;4.70;99.90
3086;DHT22;52812;48.960;9.108;2023-03-15T16:27:12;4.80;99.90
3086;DHT22;52812;48.960;9.108;2023-03-15T16:29:43;4.70;99.90
3086;DHT22;52812;48.960;9.108;2023-03-15T16:32:12;4.70;99.90
3086;DHT22;52812;48.960;9.108;2023-03-15T16:34:38;4.60;99.90
3086;DHT22;52812;48.960;9.108;2023-03-15T16:37:04;4.60;99.90
3086;DHT22;52812;48.960;9.108;2023-03-15T16:39:30;4.60;99.90
3086;DHT22;52812;48.960;9.108;2023-03-15T16:41:56;4.50;99.90
3086;DHT22;52812;48.960;9.108;2023-03-15T16:44:22;4.50;99.90
3086;DHT22;52812;48.960;9.108;2023-03-15T16:46:48;4.40;99.90
3086;DHT22;52812;48.960;9.108;2023-03-15T16:49:14;4.40;99.90
3086;DHT22;52812;48.960;9.108;2023-03-15T16:51:43;4.40;99.90
3086;DHT22;52812;48.960;9.108;2023-03-15T16:54:10;4.30;99.90
3086;DHT22;52812;48.960;9.108;2023-03-15T16:56:36;4.30;99.90
3086;DHT22;52812;48.960;9.108;2023-03-15T16:59:02;4.20;99.90
3086;DHT22;52812;48.960;9.108;2023-03-15T17:01:29;4.20;99.90
3086;DHT22;52812;48.960;9.108;2023-03-15T17:03:58;4.10;99.90
3086;DHT22;52812;48.960;9.108;2023-03-15T17:06:24;4.10;99.90
3086;DHT22;52812;48.960;9.108;2023-03-15T17:08:54;4.10;99.90
3086;DHT22;52812;48.960;9.108;2023-03-15T17:11:23;4.00;99.90
3086;DHT22;52812;48.960;9.108;2023-03-15T17:13:49;4.00;99.90
3086;DHT22;52812;48.960;9.108;2023-03-15T17:16:15;3.90;99.90
3086;DHT22;52812;48.960;9.108;2023-03-15T17:18:41;3.90;99.90
3086;DHT22;52812;48.960;9.108;2023-03-15T17:21:12;3.80;99.90
3086;DHT22;52812;48.960;9.108;2023-03-15T17:23:38;3.90;99.90
3086;DHT22;52812;48.960;9.108;2023-03-15T17:26:10;3.80;99.90
3086;DHT22;52812;48.960;9.108;2023-03-15T17:28:36;3.80;99.90
3086;DHT22;52812;48.960;9.108;2023-03-15T17:31:01;3.70;99.90
3086;DHT22;52812;48.960;9.108;2023-03-15T17:33:27;3.70;99.90
3086;DHT22;52812;48.960;9.108;2023-03-15T17:35:52;3.60;99.90